createdAt,value
2018-12-05T00:00:55.549Z,3.80
2018-12-05T00:03:23.082Z,3.70
2018-12-05T00:05:50.723Z,3.03
2018-12-05T00:08:18.320Z,3.80
2018-12-05T00:10:45.855Z,3.83
2018-12-05T00:13:13.408Z,4.30
2018-12-05T00:15:40.957Z,4.37
2018-12-05T00:18:08.510Z,3.80
2018-12-05T00:20:36.068Z,4.07
2018-12-05T00:23:05.707Z,4.60
2018-12-05T00:25:33.290Z,3.87
2018-12-05T00:28:00.811Z,4.13
2018-12-05T00:30:28.381Z,3.70
2018-12-05T00:32:55.922Z,3.83
2018-12-05T00:35:23.473Z,3.73
2018-12-05T00:37:51.081Z,3.53
2018-12-05T00:40:18.632Z,4.47
2018-12-05T00:42:46.194Z,4.10
2018-12-05T00:45:13.755Z,4.43
2018-12-05T00:47:41.290Z,4.23
2018-12-05T00:50:08.828Z,5.57
2018-12-05T00:52:36.375Z,4.53
2018-12-05T00:55:03.935Z,4.30
2018-12-05T00:57:31.473Z,4.50
2018-12-05T00:59:59.054Z,4.07
2018-12-05T01:02:26.589Z,3.83
2018-12-05T01:04:54.143Z,4.87
2018-12-05T01:07:21.665Z,4.50
2018-12-05T01:09:49.211Z,4.47
2018-12-05T01:12:16.772Z,5.03
2018-12-05T01:14:44.307Z,5.70
2018-12-05T01:17:11.841Z,5.73
2018-12-05T01:19:39.391Z,6.23
2018-12-05T01:22:06.955Z,6.63
2018-12-05T01:24:34.517Z,6.60
2018-12-05T01:27:02.056Z,8.57
2018-12-05T01:29:29.620Z,8.93
2018-12-05T01:31:57.166Z,9.27
2018-12-05T01:34:24.726Z,10.77
2018-12-05T01:36:52.324Z,11.20
2018-12-05T01:39:19.877Z,12.63
2018-12-05T01:41:47.435Z,14.03
2018-12-05T01:44:15.006Z,14.33
2018-12-05T01:46:42.561Z,15.37
2018-12-05T01:49:10.086Z,13.37
2018-12-05T01:51:37.633Z,12.13
2018-12-05T01:54:05.181Z,10.60
2018-12-05T01:56:32.710Z,10.30
2018-12-05T01:59:00.288Z,9.00
2018-12-05T02:01:27.826Z,7.13
2018-12-05T02:03:55.387Z,6.13
2018-12-05T02:06:23.019Z,6.33
2018-12-05T02:08:50.599Z,5.43
2018-12-05T02:11:18.146Z,4.93
2018-12-05T02:13:45.739Z,5.17
2018-12-05T02:16:14.730Z,4.67
2018-12-05T02:18:42.290Z,4.93
2018-12-05T02:21:09.862Z,5.10
2018-12-05T02:23:37.424Z,6.00
2018-12-05T02:26:04.986Z,5.20
2018-12-05T02:28:32.552Z,5.50
2018-12-05T02:31:00.122Z,5.93
2018-12-05T02:33:27.688Z,6.50
2018-12-05T02:35:55.246Z,6.63
2018-12-05T02:38:22.805Z,5.93
2018-12-05T02:40:50.345Z,6.17
2018-12-05T02:43:17.939Z,6.03
2018-12-05T02:45:45.545Z,6.80
2018-12-05T02:48:13.093Z,7.83
2018-12-05T02:50:40.662Z,8.07
2018-12-05T02:53:08.207Z,7.90
2018-12-05T02:55:35.781Z,8.13
2018-12-05T02:58:03.351Z,8.73
2018-12-05T03:00:31.018Z,9.30
2018-12-05T03:02:58.570Z,9.23
2018-12-05T03:05:26.162Z,10.37
2018-12-05T03:07:53.721Z,10.23
2018-12-05T03:10:21.280Z,10.43
2018-12-05T03:12:48.864Z,9.37
2018-12-05T03:15:16.419Z,9.67
2018-12-05T03:17:43.967Z,10.13
2018-12-05T03:20:11.560Z,9.00
2018-12-05T03:22:39.109Z,9.27
2018-12-05T03:25:06.646Z,9.07
2018-12-05T03:27:34.197Z,9.73
2018-12-05T03:30:01.881Z,10.60
2018-12-05T03:32:29.458Z,9.40
2018-12-05T03:34:57.154Z,9.50
2018-12-05T03:37:24.695Z,9.73
2018-12-05T03:39:52.300Z,9.70
2018-12-05T03:42:19.842Z,9.00
2018-12-05T03:44:47.414Z,10.67
2018-12-05T03:47:14.980Z,9.90
2018-12-05T03:49:44.507Z,10.27
2018-12-05T03:52:12.077Z,9.23
2018-12-05T03:54:39.651Z,9.73
2018-12-05T03:57:07.255Z,10.10
2018-12-05T03:59:34.823Z,9.63
2018-12-05T04:02:02.393Z,9.87
2018-12-05T04:04:30.004Z,9.97
2018-12-05T04:06:57.580Z,9.67
2018-12-05T04:09:25.138Z,9.90
2018-12-05T04:11:52.757Z,9.73
2018-12-05T04:14:20.316Z,8.53
2018-12-05T04:16:47.857Z,9.10
2018-12-05T04:19:15.442Z,8.30
2018-12-05T04:21:42.989Z,8.67
2018-12-05T04:24:10.542Z,8.93
2018-12-05T04:26:38.081Z,8.00
2018-12-05T04:29:05.632Z,8.73
2018-12-05T04:31:33.190Z,8.47
2018-12-05T04:34:00.745Z,8.73
2018-12-05T04:36:28.275Z,8.20
2018-12-05T04:38:55.834Z,8.17
2018-12-05T04:41:23.391Z,7.73
2018-12-05T04:43:50.997Z,8.37
2018-12-05T04:46:19.578Z,7.97
2018-12-05T04:48:47.135Z,9.67
2018-12-05T04:51:14.670Z,8.73
2018-12-05T04:53:42.219Z,8.73
2018-12-05T04:56:09.828Z,8.80
2018-12-05T04:58:37.383Z,8.43
2018-12-05T05:01:04.918Z,8.60
2018-12-05T05:03:32.457Z,9.67
2018-12-05T05:05:59.987Z,9.57
2018-12-05T05:08:27.555Z,10.17
2018-12-05T05:10:55.116Z,10.00
2018-12-05T05:13:22.767Z,9.63
2018-12-05T05:15:50.362Z,9.43
2018-12-05T05:18:17.919Z,10.53
2018-12-05T05:20:45.475Z,9.57
2018-12-05T05:23:13.017Z,11.50
2018-12-05T05:25:40.583Z,9.83
2018-12-05T05:28:08.134Z,9.80
2018-12-05T05:30:35.694Z,10.90
2018-12-05T05:33:03.233Z,11.00
2018-12-05T05:35:30.826Z,10.03
2018-12-05T05:37:58.355Z,9.53
2018-12-05T05:40:25.914Z,9.17
2018-12-05T05:42:53.453Z,9.03
2018-12-05T05:45:21.022Z,9.40
2018-12-05T05:47:48.593Z,8.30
2018-12-05T05:50:16.157Z,8.20
2018-12-05T05:52:43.690Z,9.17
2018-12-05T05:55:11.247Z,8.60
2018-12-05T05:57:38.862Z,8.77
2018-12-05T06:00:07.489Z,8.97
2018-12-05T06:02:35.039Z,9.33
2018-12-05T06:05:02.783Z,8.70
2018-12-05T06:07:30.333Z,8.10
2018-12-05T06:09:57.922Z,8.23
2018-12-05T06:12:25.471Z,8.40
2018-12-05T06:14:53.025Z,8.20
2018-12-05T06:17:20.573Z,8.63
2018-12-05T06:19:48.114Z,8.30
2018-12-05T06:22:15.683Z,8.43
2018-12-05T06:24:43.229Z,8.47
2018-12-05T06:27:10.790Z,8.30
2018-12-05T06:29:38.387Z,8.00
2018-12-05T06:32:05.940Z,8.37
2018-12-05T06:34:33.506Z,8.00
2018-12-05T06:37:01.062Z,9.03
2018-12-05T06:39:28.644Z,8.20
2018-12-05T06:41:56.210Z,8.60
2018-12-05T06:44:23.763Z,8.00
2018-12-05T06:46:51.322Z,8.07
2018-12-05T06:49:18.892Z,8.30
2018-12-05T06:51:47.409Z,8.73
2018-12-05T06:54:14.996Z,9.23
2018-12-05T06:56:42.567Z,8.90
2018-12-05T06:59:10.168Z,9.40
2018-12-05T07:01:37.754Z,9.50
2018-12-05T07:04:05.310Z,10.37
2018-12-05T07:06:32.901Z,9.50
2018-12-05T07:09:00.480Z,9.20
2018-12-05T07:11:28.085Z,9.87
2018-12-05T07:13:55.711Z,9.50
2018-12-05T07:16:23.270Z,9.63
2018-12-05T07:18:50.928Z,9.07
2018-12-05T07:21:18.543Z,10.60
2018-12-05T07:23:46.147Z,9.03
2018-12-05T07:26:13.736Z,10.07
2018-12-05T07:28:41.371Z,9.13
2018-12-05T07:31:08.980Z,9.07
2018-12-05T07:33:36.624Z,8.87
2018-12-05T07:36:04.268Z,9.60
2018-12-05T07:38:31.915Z,10.27
2018-12-05T07:40:59.619Z,10.17
2018-12-05T07:43:27.253Z,10.53
2018-12-05T07:45:54.871Z,10.07
2018-12-05T07:48:22.437Z,9.57
2018-12-05T07:50:50.011Z,10.30
2018-12-05T07:53:17.719Z,9.77
2018-12-05T07:55:45.414Z,10.40
2018-12-05T07:58:12.995Z,10.20
2018-12-05T08:00:40.576Z,10.13
2018-12-05T08:03:08.147Z,10.63
2018-12-05T08:05:35.744Z,11.10
2018-12-05T08:08:03.436Z,10.90
2018-12-05T08:10:31.030Z,10.27
2018-12-05T08:12:58.629Z,10.93
2018-12-05T08:15:26.201Z,10.47
2018-12-05T08:17:53.787Z,10.37
2018-12-05T08:20:21.422Z,10.40
2018-12-05T08:22:49.123Z,9.60
2018-12-05T08:25:16.779Z,10.30
2018-12-05T08:27:44.424Z,9.87
2018-12-05T08:30:12.022Z,10.23
2018-12-05T08:32:39.681Z,9.87
2018-12-05T08:35:07.315Z,9.27
2018-12-05T08:37:34.976Z,9.37
2018-12-05T08:40:02.564Z,9.93
2018-12-05T08:42:30.130Z,9.30
2018-12-05T08:44:57.802Z,9.30
2018-12-05T08:47:25.511Z,9.50
2018-12-05T08:49:53.183Z,9.77
2018-12-05T08:52:20.729Z,9.93
2018-12-05T08:54:48.407Z,9.57
2018-12-05T08:57:17.995Z,9.50
2018-12-05T08:59:45.555Z,9.17
2018-12-05T09:02:13.151Z,8.70
2018-12-05T09:04:40.715Z,9.60
2018-12-05T09:07:08.284Z,9.33
2018-12-05T09:09:35.836Z,9.47
2018-12-05T09:12:03.406Z,9.67
2018-12-05T09:14:31.007Z,10.13
2018-12-05T09:16:58.591Z,9.57
2018-12-05T09:19:26.260Z,10.77
2018-12-05T09:21:53.926Z,10.60
2018-12-05T09:24:21.500Z,9.83
2018-12-05T09:26:49.092Z,10.87
2018-12-05T09:29:16.686Z,9.83
2018-12-05T09:31:44.263Z,11.13
2018-12-05T09:34:11.797Z,10.70
2018-12-05T09:36:39.364Z,10.57
2018-12-05T09:39:07.392Z,10.67
2018-12-05T09:41:35.034Z,10.00
2018-12-05T09:44:02.683Z,9.63
2018-12-05T09:46:30.256Z,10.10
2018-12-05T09:48:57.836Z,10.73
2018-12-05T09:51:25.403Z,10.43
2018-12-05T09:53:52.985Z,11.37
2018-12-05T09:56:20.590Z,11.30
2018-12-05T09:58:48.174Z,9.97
2018-12-05T10:01:15.765Z,10.90
2018-12-05T10:03:43.369Z,9.83
2018-12-05T10:06:10.979Z,10.60
2018-12-05T10:08:38.634Z,10.20
2018-12-05T10:11:06.209Z,10.97
2018-12-05T10:13:34.008Z,10.70
2018-12-05T10:16:02.797Z,11.70
2018-12-05T10:18:30.363Z,11.07
2018-12-05T10:20:57.992Z,10.13
2018-12-05T10:23:25.543Z,10.13
2018-12-05T10:25:53.140Z,9.83
2018-12-05T10:28:20.701Z,9.27
2018-12-05T10:30:48.250Z,10.80
2018-12-05T10:33:15.836Z,9.77
2018-12-05T10:35:43.400Z,8.93
2018-12-05T10:38:10.928Z,9.13
2018-12-05T10:40:38.488Z,8.73
2018-12-05T10:43:06.050Z,8.40
2018-12-05T10:45:33.618Z,8.70
2018-12-05T10:48:01.307Z,7.70
2018-12-05T10:50:29.016Z,8.10
2018-12-05T10:52:56.565Z,8.07
2018-12-05T10:55:24.090Z,8.40
2018-12-05T10:57:51.705Z,7.83
2018-12-05T11:00:20.185Z,7.67
2018-12-05T11:02:53.512Z,7.03
2018-12-05T11:05:23.969Z,7.10
2018-12-05T11:07:57.150Z,7.67
2018-12-05T11:10:30.338Z,7.17
2018-12-05T11:13:03.656Z,6.80
2018-12-05T11:15:36.910Z,6.90
2018-12-05T11:18:10.108Z,7.30
2018-12-05T11:20:43.456Z,7.73
2018-12-05T11:23:13.761Z,8.30
2018-12-05T11:25:41.322Z,7.00
2018-12-05T11:28:08.900Z,8.33
2018-12-05T11:30:36.457Z,7.80
2018-12-05T11:33:04.008Z,7.80
2018-12-05T11:35:31.591Z,9.20
2018-12-05T11:37:59.135Z,8.60
2018-12-05T11:40:26.705Z,8.53
2018-12-05T11:42:54.230Z,9.87
2018-12-05T11:45:21.787Z,9.50
2018-12-05T11:47:49.349Z,9.77
2018-12-05T11:50:16.943Z,10.27
2018-12-05T11:52:44.502Z,10.57
2018-12-05T11:55:12.064Z,10.47
2018-12-05T11:57:39.626Z,11.17
2018-12-05T12:00:07.723Z,11.07
2018-12-05T12:02:35.276Z,10.73
2018-12-05T12:05:02.836Z,11.60
2018-12-05T12:07:30.407Z,10.83
2018-12-05T12:09:57.959Z,12.17
2018-12-05T12:12:31.246Z,11.20
2018-12-05T12:14:58.875Z,11.60
2018-12-05T12:17:26.453Z,13.00
2018-12-05T12:19:53.995Z,12.13
2018-12-05T12:22:21.555Z,11.87
2018-12-05T12:24:49.148Z,12.67
2018-12-05T12:27:16.716Z,13.33
2018-12-05T12:29:44.279Z,12.90
2018-12-05T12:32:11.887Z,13.07
2018-12-05T12:34:39.444Z,13.63
2018-12-05T12:37:07.027Z,13.57
2018-12-05T12:39:35.178Z,13.80
2018-12-05T12:42:02.750Z,13.37
2018-12-05T12:44:30.282Z,12.93
2018-12-05T12:46:57.847Z,13.73
2018-12-05T12:49:25.411Z,13.90
2018-12-05T12:51:52.945Z,14.57
2018-12-05T12:54:20.579Z,15.43
2018-12-05T12:56:48.105Z,15.03
2018-12-05T12:59:15.664Z,16.07
2018-12-05T13:01:43.222Z,15.50
2018-12-05T13:04:10.833Z,16.67
2018-12-05T13:06:38.384Z,17.53
2018-12-05T13:09:06.793Z,15.23
2018-12-05T13:11:34.325Z,17.10
2018-12-05T13:14:01.877Z,16.40
2018-12-05T13:16:29.401Z,17.93
2018-12-05T13:18:56.979Z,18.53
2018-12-05T13:21:24.561Z,18.20
2018-12-05T13:23:52.225Z,18.50
2018-12-05T13:26:19.761Z,19.30
2018-12-05T13:28:47.325Z,18.37
2018-12-05T13:31:14.882Z,19.27
2018-12-05T13:33:42.562Z,19.77
2018-12-05T13:36:10.158Z,19.97
2018-12-05T13:38:37.707Z,19.63
2018-12-05T13:41:05.287Z,19.73
2018-12-05T13:43:34.513Z,19.23
2018-12-05T13:46:02.322Z,20.40
2018-12-05T13:48:29.945Z,21.40
2018-12-05T13:50:57.522Z,20.47
2018-12-05T13:53:25.131Z,18.63
2018-12-05T13:55:52.730Z,20.60
2018-12-05T13:58:20.288Z,21.03
2018-12-05T14:00:47.858Z,21.30
2018-12-05T14:03:15.414Z,23.23
2018-12-05T14:05:43.006Z,22.70
2018-12-05T14:08:10.583Z,22.97
2018-12-05T14:10:38.320Z,21.63
2018-12-05T14:13:05.901Z,21.90
2018-12-05T14:15:33.485Z,22.50
2018-12-05T14:18:02.419Z,21.90
2018-12-05T14:20:30.876Z,21.57
2018-12-05T14:22:58.729Z,22.13
2018-12-05T14:25:26.606Z,20.40
2018-12-05T14:27:54.230Z,21.57
2018-12-05T14:30:21.853Z,21.13
2018-12-05T14:32:49.459Z,20.93
2018-12-05T14:35:17.037Z,20.73
2018-12-05T14:37:44.662Z,20.60
2018-12-05T14:40:12.198Z,19.67
2018-12-05T14:42:39.796Z,19.63
2018-12-05T14:45:07.381Z,19.33
2018-12-05T14:47:34.951Z,17.90
2018-12-05T14:50:02.527Z,19.97
2018-12-05T14:52:30.106Z,18.90
2018-12-05T14:54:57.716Z,18.40
2018-12-05T14:57:25.281Z,17.97
2018-12-05T14:59:52.848Z,16.43
2018-12-05T15:02:20.403Z,16.67
2018-12-05T15:04:47.992Z,17.17
2018-12-05T15:07:15.548Z,16.67
2018-12-05T15:09:43.122Z,17.13
2018-12-05T15:12:10.668Z,16.53
2018-12-05T15:14:38.291Z,16.40
2018-12-05T15:17:05.889Z,17.33
2018-12-05T15:19:33.446Z,16.60
2018-12-05T15:22:01.058Z,16.00
2018-12-05T15:24:28.732Z,16.40
2018-12-05T15:26:56.330Z,16.17
2018-12-05T15:29:25.694Z,17.43
2018-12-05T15:31:53.497Z,17.90
2018-12-05T15:34:21.130Z,18.10
2018-12-05T15:36:48.693Z,16.17
2018-12-05T15:39:16.242Z,17.17
2018-12-05T15:41:43.860Z,17.03
2018-12-05T15:44:11.449Z,17.03
2018-12-05T15:46:39.021Z,16.53
2018-12-05T15:49:06.604Z,15.60
2018-12-05T15:51:34.152Z,16.23
2018-12-05T15:54:01.707Z,16.90
2018-12-05T15:56:29.364Z,15.23
2018-12-05T15:58:56.939Z,15.30
2018-12-05T16:01:24.501Z,14.63
2018-12-05T16:03:52.072Z,14.33
2018-12-05T16:06:19.743Z,14.93
2018-12-05T16:08:48.531Z,13.57
2018-12-05T16:11:16.063Z,13.93
2018-12-05T16:13:43.647Z,13.53
2018-12-05T16:16:11.350Z,13.97
2018-12-05T16:18:38.958Z,12.90
2018-12-05T16:21:07.902Z,12.73
2018-12-05T16:23:35.521Z,13.90
2018-12-05T16:26:10.672Z,13.27
2018-12-05T16:28:34.226Z,13.10
2018-12-05T16:31:01.791Z,13.70
2018-12-05T16:33:29.423Z,12.30
2018-12-05T16:35:57.010Z,12.37
2018-12-05T16:38:24.650Z,12.53
2018-12-05T16:40:52.198Z,12.40
2018-12-05T16:43:19.784Z,11.23
2018-12-05T16:45:47.338Z,13.07
2018-12-05T16:48:14.911Z,11.67
2018-12-05T16:50:43.079Z,12.07
2018-12-05T16:53:11.773Z,12.97
2018-12-05T16:55:42.283Z,12.93
2018-12-05T16:58:09.947Z,12.03
2018-12-05T17:00:37.515Z,11.43
2018-12-05T17:03:05.173Z,10.20
2018-12-05T17:05:32.751Z,10.53
2018-12-05T17:08:00.362Z,10.63
2018-12-05T17:10:28.744Z,10.87
2018-12-05T17:12:56.321Z,11.83
2018-12-05T17:15:23.898Z,11.67
2018-12-05T17:17:51.450Z,11.20
2018-12-05T17:20:19.222Z,11.60
2018-12-05T17:22:46.844Z,12.03
2018-12-05T17:25:14.442Z,14.50
2018-12-05T17:27:44.506Z,11.63
2018-12-05T17:30:17.847Z,13.80
2018-12-05T17:32:45.491Z,12.20
2018-12-05T17:35:13.070Z,12.33
2018-12-05T17:37:41.682Z,11.73
2018-12-05T17:40:09.444Z,12.50
2018-12-05T17:42:37.011Z,14.93
2018-12-05T17:45:04.804Z,16.57
2018-12-05T17:47:32.486Z,11.37
2018-12-05T17:50:00.230Z,11.37
2018-12-05T17:52:27.797Z,11.57
2018-12-05T17:54:58.420Z,12.87
2018-12-05T17:57:26.080Z,26.97
2018-12-05T17:59:53.663Z,12.87
2018-12-05T18:02:21.204Z,10.30
2018-12-05T18:04:48.757Z,10.77
2018-12-05T18:07:16.312Z,10.57
2018-12-05T18:09:43.871Z,19.27
2018-12-05T18:12:11.431Z,24.07
2018-12-05T18:14:39.013Z,13.00
2018-12-05T18:17:06.576Z,11.77
2018-12-05T18:19:34.158Z,11.53
2018-12-05T18:22:01.734Z,11.40
2018-12-05T18:24:29.335Z,12.10
2018-12-05T18:26:56.915Z,10.63
2018-12-05T18:29:25.410Z,11.33
2018-12-05T18:31:52.994Z,11.53
2018-12-05T18:34:20.553Z,10.87
2018-12-05T18:36:48.099Z,10.87
2018-12-05T18:39:15.688Z,11.03
2018-12-05T18:41:43.273Z,12.47
2018-12-05T18:44:10.832Z,11.97
2018-12-05T18:46:38.391Z,12.77
2018-12-05T18:49:05.943Z,11.30
2018-12-05T18:51:33.509Z,12.97
2018-12-05T18:54:01.064Z,11.20
2018-12-05T18:56:28.707Z,10.63
2018-12-05T18:58:56.277Z,10.13
2018-12-05T19:01:23.889Z,9.77
2018-12-05T19:03:51.517Z,10.70
2018-12-05T19:06:19.088Z,11.60
2018-12-05T19:08:46.645Z,21.33
2018-12-05T19:11:14.259Z,9.20
2018-12-05T19:13:47.646Z,11.00
2018-12-05T19:16:15.210Z,9.97
2018-12-05T19:18:42.785Z,10.30
2018-12-05T19:21:10.338Z,9.53
2018-12-05T19:23:37.884Z,9.20
2018-12-05T19:26:05.496Z,10.53
2018-12-05T19:28:33.047Z,10.03
2018-12-05T19:31:00.621Z,10.53
2018-12-05T19:33:28.187Z,10.33
2018-12-05T19:35:55.747Z,9.43
2018-12-05T19:38:23.293Z,10.27
2018-12-05T19:40:50.883Z,9.83
2018-12-05T19:43:19.190Z,10.37
2018-12-05T19:45:46.755Z,9.90
2018-12-05T19:48:14.850Z,9.33
2018-12-05T19:50:44.360Z,9.43
2018-12-05T19:53:11.935Z,9.63
2018-12-05T19:55:39.519Z,10.10
2018-12-05T19:58:07.120Z,9.70
2018-12-05T20:00:34.727Z,10.93
2018-12-05T20:03:03.201Z,10.33
2018-12-05T20:05:30.778Z,10.00
2018-12-05T20:07:58.373Z,9.10
2018-12-05T20:10:26.859Z,9.10
2018-12-05T20:12:54.535Z,9.03
2018-12-05T20:15:22.180Z,10.17
2018-12-05T20:17:49.866Z,8.87
2018-12-05T20:20:18.560Z,10.90
2018-12-05T20:22:46.152Z,8.77
2018-12-05T20:25:13.799Z,8.03
2018-12-05T20:27:41.496Z,8.80
2018-12-05T20:30:10.193Z,8.27
2018-12-05T20:32:38.690Z,7.73
2018-12-05T20:35:06.392Z,9.10
2018-12-05T20:37:33.989Z,8.70
2018-12-05T20:40:01.622Z,8.10
2018-12-05T20:42:29.242Z,7.60
2018-12-05T20:44:56.874Z,6.83
2018-12-05T20:47:24.492Z,7.10
2018-12-05T20:49:53.417Z,7.43
2018-12-05T20:52:21.519Z,7.50
2018-12-05T20:54:49.308Z,7.23
2018-12-05T20:57:17.040Z,7.97
2018-12-05T20:59:45.523Z,7.97
2018-12-05T21:02:13.117Z,8.60
2018-12-05T21:04:40.915Z,8.50
2018-12-05T21:07:08.490Z,8.20
2018-12-05T21:09:36.094Z,8.63
2018-12-05T21:12:03.674Z,8.03
2018-12-05T21:14:31.285Z,8.07
2018-12-05T21:16:59.706Z,7.90
2018-12-05T21:19:27.328Z,7.73
2018-12-05T21:21:54.852Z,7.33
2018-12-05T21:24:22.426Z,6.93
2018-12-05T21:26:49.976Z,6.80
2018-12-05T21:29:17.634Z,6.97
2018-12-05T21:31:45.197Z,7.67
2018-12-05T21:34:13.900Z,7.07
2018-12-05T21:36:41.512Z,7.13
2018-12-05T21:39:09.153Z,8.50
2018-12-05T21:41:37.947Z,8.07
2018-12-05T21:44:05.552Z,7.07
2018-12-05T21:46:33.144Z,6.63
2018-12-05T21:49:00.730Z,7.80
2018-12-05T21:51:28.303Z,8.50
2018-12-05T21:53:55.871Z,7.57
2018-12-05T21:56:23.476Z,7.37
2018-12-05T21:58:51.110Z,7.40
2018-12-05T22:01:18.700Z,7.60
2018-12-05T22:03:46.276Z,6.93
2018-12-05T22:06:13.841Z,7.20
2018-12-05T22:08:41.461Z,7.73
2018-12-05T22:11:09.011Z,7.23
2018-12-05T22:13:36.576Z,6.93
2018-12-05T22:16:04.147Z,7.83
2018-12-05T22:18:32.663Z,7.47
2018-12-05T22:21:00.202Z,7.60
2018-12-05T22:23:27.827Z,8.03
2018-12-05T22:25:56.027Z,7.47
2018-12-05T22:28:23.817Z,6.83
2018-12-05T22:31:25.443Z,8.63
2018-12-05T22:33:53.016Z,8.07
2018-12-05T22:36:20.584Z,7.87
2018-12-05T22:38:48.134Z,8.53
2018-12-05T22:41:15.722Z,8.03
2018-12-05T22:43:43.259Z,8.00
2018-12-05T22:46:10.825Z,8.23
2018-12-05T22:48:38.354Z,9.07
2018-12-05T22:51:05.914Z,9.03
2018-12-05T22:53:33.456Z,8.60
2018-12-05T22:56:01.025Z,8.90
2018-12-05T22:58:28.557Z,8.43
2018-12-05T23:00:56.689Z,9.43
2018-12-05T23:03:24.218Z,10.50
2018-12-05T23:05:51.806Z,9.80
2018-12-05T23:08:19.368Z,9.40
2018-12-05T23:10:46.908Z,10.00
2018-12-05T23:13:14.453Z,11.13
2018-12-05T23:15:42.002Z,11.57
2018-12-05T23:18:09.578Z,11.07
2018-12-05T23:20:37.272Z,11.27
2018-12-05T23:23:04.831Z,12.00
2018-12-05T23:25:32.371Z,11.13
2018-12-05T23:27:59.933Z,11.93
2018-12-05T23:30:27.498Z,12.07
2018-12-05T23:32:55.048Z,12.00
2018-12-05T23:35:22.630Z,12.00
2018-12-05T23:37:50.177Z,12.63
2018-12-05T23:40:17.909Z,12.77
2018-12-05T23:42:46.979Z,13.47
2018-12-05T23:45:14.583Z,12.43
2018-12-05T23:47:42.150Z,12.00
2018-12-05T23:50:09.710Z,12.97
2018-12-05T23:52:37.276Z,13.03
2018-12-05T23:55:04.841Z,13.43
2018-12-05T23:57:32.420Z,13.07
2018-12-05T23:59:59.979Z,13.23
